sensor_id;sensor_type;location;lat;lon;timestamp;P1;durP1;ratioP1;P2;durP2;ratioP2
41201;SDS011;26936;50.524;8.684;2022-12-18T00:01:31;57.33;;;19.67;;
41201;SDS011;26936;50.524;8.684;2022-12-18T00:03:58;58.47;;;19.52;;
41201;SDS011;26936;50.524;8.684;2022-12-18T00:06:25;59.55;;;19.40;;
41201;SDS011;26936;50.524;8.684;2022-12-18T00:08:52;57.28;;;18.85;;
41201;SDS011;26936;50.524;8.684;2022-12-18T00:11:18;51.72;;;18.52;;
41201;SDS011;26936;50.524;8.684;2022-12-18T00:13:46;51.30;;;18.30;;
41201;SDS011;26936;50.524;8.684;2022-12-18T00:16:13;62.35;;;18.90;;
41201;SDS011;26936;50.524;8.684;2022-12-18T00:18:40;49.95;;;17.35;;
41201;SDS011;26936;50.524;8.684;2022-12-18T00:21:08;60.17;;;21.02;;
41201;SDS011;26936;50.524;8.684;2022-12-18T00:23:35;51.85;;;17.38;;
41201;SDS011;26936;50.524;8.684;2022-12-18T00:26:01;55.22;;;18.20;;
41201;SDS011;26936;50.524;8.684;2022-12-18T00:28:28;55.15;;;17.98;;
41201;SDS011;26936;50.524;8.684;2022-12-18T00:31:01;56.80;;;18.35;;
41201;SDS011;26936;50.524;8.684;2022-12-18T00:33:26;52.40;;;18.25;;
41201;SDS011;26936;50.524;8.684;2022-12-18T00:35:52;55.53;;;18.92;;
41201;SDS011;26936;50.524;8.684;2022-12-18T00:38:17;54.22;;;18.08;;
41201;SDS011;26936;50.524;8.684;2022-12-18T00:40:42;58.58;;;19.65;;
41201;SDS011;26936;50.524;8.684;2022-12-18T00:43:08;52.33;;;17.45;;
41201;SDS011;26936;50.524;8.684;2022-12-18T00:45:34;55.25;;;19.00;;
41201;SDS011;26936;50.524;8.684;2022-12-18T00:47:59;54.35;;;19.38;;
41201;SDS011;26936;50.524;8.684;2022-12-18T00:50:24;60.20;;;20.35;;
41201;SDS011;26936;50.524;8.684;2022-12-18T00:52:50;51.13;;;19.02;;
41201;SDS011;26936;50.524;8.684;2022-12-18T00:55:16;56.33;;;18.25;;
41201;SDS011;26936;50.524;8.684;2022-12-18T00:57:42;52.90;;;18.42;;
41201;SDS011;26936;50.524;8.684;2022-12-18T01:00:08;48.50;;;18.08;;
41201;SDS011;26936;50.524;8.684;2022-12-18T01:02:36;55.90;;;18.15;;
41201;SDS011;26936;50.524;8.684;2022-12-18T01:05:01;49.47;;;17.05;;
41201;SDS011;26936;50.524;8.684;2022-12-18T01:07:26;49.55;;;18.30;;
41201;SDS011;26936;50.524;8.684;2022-12-18T01:09:52;52.08;;;18.85;;
41201;SDS011;26936;50.524;8.684;2022-12-18T01:12:17;50.08;;;17.38;;
41201;SDS011;26936;50.524;8.684;2022-12-18T01:14:42;52.13;;;17.50;;
41201;SDS011;26936;50.524;8.684;2022-12-18T01:17:07;47.83;;;17.00;;
41201;SDS011;26936;50.524;8.684;2022-12-18T01:19:33;49.47;;;18.60;;
41201;SDS011;26936;50.524;8.684;2022-12-18T01:21:58;50.13;;;17.73;;
41201;SDS011;26936;50.524;8.684;2022-12-18T01:24:24;63.33;;;18.50;;
41201;SDS011;26936;50.524;8.684;2022-12-18T01:26:49;49.95;;;17.25;;
41201;SDS011;26936;50.524;8.684;2022-12-18T01:29:14;46.60;;;17.27;;
41201;SDS011;26936;50.524;8.684;2022-12-18T01:31:40;47.78;;;17.95;;
41201;SDS011;26936;50.524;8.684;2022-12-18T01:34:05;46.35;;;17.45;;
41201;SDS011;26936;50.524;8.684;2022-12-18T01:36:34;49.33;;;17.10;;
41201;SDS011;26936;50.524;8.684;2022-12-18T01:39:05;52.90;;;17.58;;
41201;SDS011;26936;50.524;8.684;2022-12-18T01:41:33;57.70;;;19.50;;
41201;SDS011;26936;50.524;8.684;2022-12-18T01:47:15;54.13;;;17.92;;
41201;SDS011;26936;50.524;8.684;2022-12-18T01:49:45;54.53;;;17.88;;
41201;SDS011;26936;50.524;8.684;2022-12-18T01:52:10;49.35;;;17.45;;
41201;SDS011;26936;50.524;8.684;2022-12-18T01:54:35;49.88;;;18.15;;
41201;SDS011;26936;50.524;8.684;2022-12-18T01:57:01;53.88;;;18.70;;
41201;SDS011;26936;50.524;8.684;2022-12-18T01:59:26;53.58;;;18.52;;
41201;SDS011;26936;50.524;8.684;2022-12-18T02:01:53;52.78;;;18.80;;
41201;SDS011;26936;50.524;8.684;2022-12-18T02:04:20;50.55;;;17.38;;
41201;SDS011;26936;50.524;8.684;2022-12-18T02:06:46;53.00;;;19.10;;
41201;SDS011;26936;50.524;8.684;2022-12-18T02:09:19;61.03;;;19.48;;
41201;SDS011;26936;50.524;8.684;2022-12-18T02:14:40;62.30;;;18.35;;
41201;SDS011;26936;50.524;8.684;2022-12-18T02:17:17;48.95;;;17.38;;
41201;SDS011;26936;50.524;8.684;2022-12-18T02:28:22;52.47;;;18.13;;
41201;SDS011;26936;50.524;8.684;2022-12-18T02:30:52;52.67;;;18.25;;
41201;SDS011;26936;50.524;8.684;2022-12-18T02:33:21;53.20;;;18.38;;
41201;SDS011;26936;50.524;8.684;2022-12-18T02:35:48;50.75;;;18.35;;
41201;SDS011;26936;50.524;8.684;2022-12-18T02:38:16;51.10;;;17.77;;
41201;SDS011;26936;50.524;8.684;2022-12-18T02:40:42;51.25;;;18.23;;
41201;SDS011;26936;50.524;8.684;2022-12-18T02:43:10;50.90;;;18.83;;
41201;SDS011;26936;50.524;8.684;2022-12-18T02:46:41;51.92;;;18.13;;
41201;SDS011;26936;50.524;8.684;2022-12-18T02:48:50;53.25;;;18.50;;
41201;SDS011;26936;50.524;8.684;2022-12-18T02:51:29;42.35;;;16.73;;
41201;SDS011;26936;50.524;8.684;2022-12-18T02:54:14;44.50;;;16.35;;
41201;SDS011;26936;50.524;8.684;2022-12-18T02:56:50;46.20;;;17.58;;
41201;SDS011;26936;50.524;8.684;2022-12-18T02:59:19;43.67;;;16.20;;
41201;SDS011;26936;50.524;8.684;2022-12-18T03:02:17;45.97;;;16.40;;
41201;SDS011;26936;50.524;8.684;2022-12-18T03:05:01;44.28;;;15.93;;
41201;SDS011;26936;50.524;8.684;2022-12-18T03:07:35;49.75;;;16.73;;
41201;SDS011;26936;50.524;8.684;2022-12-18T03:10:04;43.70;;;16.98;;
41201;SDS011;26936;50.524;8.684;2022-12-18T03:12:37;47.08;;;17.40;;
41201;SDS011;26936;50.524;8.684;2022-12-18T03:15:49;46.28;;;16.98;;
41201;SDS011;26936;50.524;8.684;2022-12-18T03:18:06;45.25;;;16.30;;
41201;SDS011;26936;50.524;8.684;2022-12-18T03:20:35;45.25;;;17.80;;
41201;SDS011;26936;50.524;8.684;2022-12-18T03:23:11;48.08;;;16.65;;
41201;SDS011;26936;50.524;8.684;2022-12-18T03:25:39;44.85;;;17.05;;
41201;SDS011;26936;50.524;8.684;2022-12-18T03:28:07;46.60;;;16.75;;
41201;SDS011;26936;50.524;8.684;2022-12-18T03:30:37;46.53;;;17.50;;
41201;SDS011;26936;50.524;8.684;2022-12-18T03:33:07;48.33;;;18.35;;
41201;SDS011;26936;50.524;8.684;2022-12-18T03:35:41;45.25;;;16.75;;
41201;SDS011;26936;50.524;8.684;2022-12-18T03:38:08;48.67;;;16.98;;
41201;SDS011;26936;50.524;8.684;2022-12-18T03:40:40;40.58;;;14.77;;
41201;SDS011;26936;50.524;8.684;2022-12-18T03:43:19;47.00;;;17.35;;
41201;SDS011;26936;50.524;8.684;2022-12-18T03:45:54;51.65;;;17.38;;
41201;SDS011;26936;50.524;8.684;2022-12-18T03:48:29;44.38;;;17.08;;
41201;SDS011;26936;50.524;8.684;2022-12-18T03:51:07;51.08;;;17.77;;
41201;SDS011;26936;50.524;8.684;2022-12-18T03:53:58;50.65;;;17.35;;
41201;SDS011;26936;50.524;8.684;2022-12-18T03:56:26;46.83;;;17.10;;
41201;SDS011;26936;50.524;8.684;2022-12-18T03:58:56;44.75;;;16.15;;
41201;SDS011;26936;50.524;8.684;2022-12-18T04:01:32;47.38;;;17.20;;
41201;SDS011;26936;50.524;8.684;2022-12-18T04:04:01;46.83;;;16.25;;
41201;SDS011;26936;50.524;8.684;2022-12-18T04:06:28;48.33;;;17.05;;
41201;SDS011;26936;50.524;8.684;2022-12-18T04:08:56;45.35;;;16.90;;
41201;SDS011;26936;50.524;8.684;2022-12-18T04:11:22;46.30;;;17.45;;
41201;SDS011;26936;50.524;8.684;2022-12-18T04:13:48;50.70;;;16.17;;
41201;SDS011;26936;50.524;8.684;2022-12-18T04:16:13;49.75;;;16.85;;
41201;SDS011;26936;50.524;8.684;2022-12-18T04:18:38;49.13;;;16.30;;
41201;SDS011;26936;50.524;8.684;2022-12-18T04:21:04;46.50;;;17.38;;
41201;SDS011;26936;50.524;8.684;2022-12-18T04:23:29;46.30;;;15.77;;
41201;SDS011;26936;50.524;8.684;2022-12-18T04:25:54;45.13;;;16.77;;
41201;SDS011;26936;50.524;8.684;2022-12-18T04:28:20;45.55;;;17.25;;
41201;SDS011;26936;50.524;8.684;2022-12-18T04:30:49;51.00;;;17.65;;
41201;SDS011;26936;50.524;8.684;2022-12-18T04:33:14;43.15;;;15.80;;
41201;SDS011;26936;50.524;8.684;2022-12-18T04:35:42;46.10;;;16.10;;
41201;SDS011;26936;50.524;8.684;2022-12-18T04:38:08;52.80;;;17.20;;
41201;SDS011;26936;50.524;8.684;2022-12-18T04:40:35;54.40;;;18.02;;
41201;SDS011;26936;50.524;8.684;2022-12-18T04:43:00;54.90;;;16.92;;
41201;SDS011;26936;50.524;8.684;2022-12-18T04:45:26;48.90;;;16.48;;
41201;SDS011;26936;50.524;8.684;2022-12-18T04:47:51;52.00;;;17.98;;
41201;SDS011;26936;50.524;8.684;2022-12-18T04:50:17;52.58;;;16.10;;
41201;SDS011;26936;50.524;8.684;2022-12-18T04:52:42;51.80;;;17.52;;
41201;SDS011;26936;50.524;8.684;2022-12-18T04:55:07;45.78;;;16.50;;
41201;SDS011;26936;50.524;8.684;2022-12-18T04:57:32;54.92;;;18.70;;
41201;SDS011;26936;50.524;8.684;2022-12-18T04:59:58;50.63;;;17.92;;
41201;SDS011;26936;50.524;8.684;2022-12-18T05:02:23;55.42;;;19.63;;
41201;SDS011;26936;50.524;8.684;2022-12-18T05:04:48;62.75;;;18.73;;
41201;SDS011;26936;50.524;8.684;2022-12-18T05:07:14;61.83;;;19.35;;
41201;SDS011;26936;50.524;8.684;2022-12-18T05:09:39;58.25;;;18.80;;
41201;SDS011;26936;50.524;8.684;2022-12-18T05:12:04;55.70;;;19.05;;
41201;SDS011;26936;50.524;8.684;2022-12-18T05:14:30;49.03;;;18.70;;
41201;SDS011;26936;50.524;8.684;2022-12-18T05:16:55;50.22;;;17.98;;
41201;SDS011;26936;50.524;8.684;2022-12-18T05:19:20;55.97;;;19.65;;
41201;SDS011;26936;50.524;8.684;2022-12-18T05:21:46;55.47;;;18.38;;
41201;SDS011;26936;50.524;8.684;2022-12-18T05:24:11;57.53;;;18.58;;
41201;SDS011;26936;50.524;8.684;2022-12-18T05:26:36;58.00;;;18.48;;
41201;SDS011;26936;50.524;8.684;2022-12-18T05:29:01;53.33;;;19.30;;
41201;SDS011;26936;50.524;8.684;2022-12-18T05:31:27;55.15;;;19.20;;
41201;SDS011;26936;50.524;8.684;2022-12-18T05:33:52;49.95;;;18.85;;
41201;SDS011;26936;50.524;8.684;2022-12-18T05:36:17;56.38;;;18.15;;
41201;SDS011;26936;50.524;8.684;2022-12-18T05:38:43;48.70;;;18.38;;
41201;SDS011;26936;50.524;8.684;2022-12-18T05:41:09;51.78;;;17.65;;
41201;SDS011;26936;50.524;8.684;2022-12-18T05:43:35;51.78;;;18.30;;
41201;SDS011;26936;50.524;8.684;2022-12-18T05:46:05;47.38;;;17.80;;
41201;SDS011;26936;50.524;8.684;2022-12-18T05:48:32;50.08;;;16.77;;
41201;SDS011;26936;50.524;8.684;2022-12-18T05:51:03;64.90;;;21.20;;
41201;SDS011;26936;50.524;8.684;2022-12-18T05:53:30;58.63;;;18.77;;
41201;SDS011;26936;50.524;8.684;2022-12-18T05:55:59;61.25;;;19.67;;
41201;SDS011;26936;50.524;8.684;2022-12-18T05:58:25;63.78;;;20.23;;
41201;SDS011;26936;50.524;8.684;2022-12-18T06:00:50;66.63;;;20.85;;
41201;SDS011;26936;50.524;8.684;2022-12-18T06:03:15;67.03;;;21.15;;
41201;SDS011;26936;50.524;8.684;2022-12-18T06:05:41;59.80;;;20.73;;
41201;SDS011;26936;50.524;8.684;2022-12-18T06:08:08;57.70;;;20.17;;
41201;SDS011;26936;50.524;8.684;2022-12-18T06:10:34;50.40;;;18.05;;
41201;SDS011;26936;50.524;8.684;2022-12-18T06:12:59;46.97;;;18.30;;
41201;SDS011;26936;50.524;8.684;2022-12-18T06:15:25;43.88;;;15.60;;
41201;SDS011;26936;50.524;8.684;2022-12-18T06:17:50;39.53;;;14.43;;
41201;SDS011;26936;50.524;8.684;2022-12-18T06:20:15;44.95;;;15.68;;
41201;SDS011;26936;50.524;8.684;2022-12-18T06:22:41;36.40;;;14.18;;
41201;SDS011;26936;50.524;8.684;2022-12-18T06:25:06;34.95;;;14.48;;
41201;SDS011;26936;50.524;8.684;2022-12-18T06:27:32;43.00;;;14.68;;
41201;SDS011;26936;50.524;8.684;2022-12-18T06:29:58;35.15;;;14.10;;
41201;SDS011;26936;50.524;8.684;2022-12-18T06:32:24;32.80;;;12.82;;
41201;SDS011;26936;50.524;8.684;2022-12-18T06:34:49;32.38;;;12.90;;
41201;SDS011;26936;50.524;8.684;2022-12-18T06:37:14;32.97;;;13.27;;
41201;SDS011;26936;50.524;8.684;2022-12-18T06:39:40;34.33;;;13.95;;
41201;SDS011;26936;50.524;8.684;2022-12-18T06:42:05;32.33;;;13.15;;
41201;SDS011;26936;50.524;8.684;2022-12-18T06:44:30;40.00;;;13.93;;
41201;SDS011;26936;50.524;8.684;2022-12-18T06:46:56;36.25;;;13.98;;
41201;SDS011;26936;50.524;8.684;2022-12-18T06:49:21;33.50;;;14.18;;
41201;SDS011;26936;50.524;8.684;2022-12-18T06:51:46;41.92;;;15.30;;
41201;SDS011;26936;50.524;8.684;2022-12-18T06:54:12;41.60;;;13.82;;
41201;SDS011;26936;50.524;8.684;2022-12-18T06:56:37;38.22;;;14.40;;
41201;SDS011;26936;50.524;8.684;2022-12-18T06:59:02;42.97;;;14.73;;
41201;SDS011;26936;50.524;8.684;2022-12-18T07:01:28;43.88;;;15.23;;
41201;SDS011;26936;50.524;8.684;2022-12-18T07:03:54;40.67;;;14.93;;
41201;SDS011;26936;50.524;8.684;2022-12-18T07:06:21;40.22;;;15.10;;
41201;SDS011;26936;50.524;8.684;2022-12-18T07:08:49;39.95;;;14.45;;
41201;SDS011;26936;50.524;8.684;2022-12-18T07:11:15;40.67;;;15.45;;
41201;SDS011;26936;50.524;8.684;2022-12-18T07:13:41;38.33;;;15.40;;
41201;SDS011;26936;50.524;8.684;2022-12-18T07:16:07;37.90;;;15.60;;
41201;SDS011;26936;50.524;8.684;2022-12-18T07:18:34;42.17;;;15.13;;
41201;SDS011;26936;50.524;8.684;2022-12-18T07:21:07;41.13;;;13.85;;
41201;SDS011;26936;50.524;8.684;2022-12-18T07:23:34;35.20;;;12.70;;
41201;SDS011;26936;50.524;8.684;2022-12-18T07:26:04;33.55;;;14.52;;
41201;SDS011;26936;50.524;8.684;2022-12-18T07:28:31;35.45;;;13.35;;
41201;SDS011;26936;50.524;8.684;2022-12-18T07:30:58;32.38;;;13.93;;
41201;SDS011;26936;50.524;8.684;2022-12-18T07:33:27;39.95;;;14.30;;
41201;SDS011;26936;50.524;8.684;2022-12-18T07:35:52;35.50;;;14.88;;
41201;SDS011;26936;50.524;8.684;2022-12-18T07:38:17;39.13;;;14.43;;
41201;SDS011;26936;50.524;8.684;2022-12-18T07:40:43;33.50;;;14.02;;
41201;SDS011;26936;50.524;8.684;2022-12-18T07:43:08;34.20;;;13.35;;
41201;SDS011;26936;50.524;8.684;2022-12-18T07:45:33;34.50;;;13.95;;
41201;SDS011;26936;50.524;8.684;2022-12-18T07:47:58;35.35;;;13.05;;
41201;SDS011;26936;50.524;8.684;2022-12-18T07:50:24;40.33;;;15.70;;
41201;SDS011;26936;50.524;8.684;2022-12-18T07:52:49;33.95;;;13.52;;
41201;SDS011;26936;50.524;8.684;2022-12-18T07:55:14;40.35;;;15.45;;
41201;SDS011;26936;50.524;8.684;2022-12-18T07:57:39;39.78;;;13.88;;
41201;SDS011;26936;50.524;8.684;2022-12-18T08:00:05;36.45;;;13.90;;
41201;SDS011;26936;50.524;8.684;2022-12-18T08:02:31;41.33;;;14.73;;
41201;SDS011;26936;50.524;8.684;2022-12-18T08:04:56;38.70;;;15.25;;
41201;SDS011;26936;50.524;8.684;2022-12-18T08:07:22;41.55;;;15.68;;
41201;SDS011;26936;50.524;8.684;2022-12-18T08:09:47;43.20;;;16.05;;
41201;SDS011;26936;50.524;8.684;2022-12-18T08:12:12;38.42;;;15.30;;
41201;SDS011;26936;50.524;8.684;2022-12-18T08:14:37;41.80;;;14.55;;
41201;SDS011;26936;50.524;8.684;2022-12-18T08:17:02;37.53;;;14.15;;
41201;SDS011;26936;50.524;8.684;2022-12-18T08:19:28;39.42;;;15.57;;
41201;SDS011;26936;50.524;8.684;2022-12-18T08:21:53;35.80;;;13.73;;
41201;SDS011;26936;50.524;8.684;2022-12-18T08:24:18;34.03;;;13.60;;
41201;SDS011;26936;50.524;8.684;2022-12-18T08:26:44;37.63;;;14.27;;
41201;SDS011;26936;50.524;8.684;2022-12-18T08:29:09;38.45;;;13.82;;
41201;SDS011;26936;50.524;8.684;2022-12-18T08:31:34;35.60;;;14.93;;
41201;SDS011;26936;50.524;8.684;2022-12-18T08:34:00;36.08;;;14.73;;
41201;SDS011;26936;50.524;8.684;2022-12-18T08:36:25;32.42;;;13.15;;
41201;SDS011;26936;50.524;8.684;2022-12-18T08:38:51;36.83;;;14.88;;
41201;SDS011;26936;50.524;8.684;2022-12-18T08:41:17;35.65;;;13.38;;
41201;SDS011;26936;50.524;8.684;2022-12-18T08:43:43;32.10;;;13.35;;
41201;SDS011;26936;50.524;8.684;2022-12-18T08:46:27;27.73;;;12.10;;
41201;SDS011;26936;50.524;8.684;2022-12-18T08:48:58;33.67;;;14.02;;
41201;SDS011;26936;50.524;8.684;2022-12-18T08:51:24;34.40;;;15.20;;
41201;SDS011;26936;50.524;8.684;2022-12-18T08:53:49;33.92;;;13.40;;
41201;SDS011;26936;50.524;8.684;2022-12-18T08:56:14;33.08;;;14.13;;
41201;SDS011;26936;50.524;8.684;2022-12-18T08:58:40;35.22;;;15.70;;
41201;SDS011;26936;50.524;8.684;2022-12-18T09:01:08;30.27;;;15.15;;
41201;SDS011;26936;50.524;8.684;2022-12-18T09:03:35;36.13;;;16.23;;
41201;SDS011;26936;50.524;8.684;2022-12-18T09:06:01;36.53;;;16.27;;
41201;SDS011;26936;50.524;8.684;2022-12-18T09:08:26;31.25;;;14.77;;
41201;SDS011;26936;50.524;8.684;2022-12-18T09:10:52;33.25;;;14.70;;
41201;SDS011;26936;50.524;8.684;2022-12-18T09:13:18;32.03;;;14.85;;
41201;SDS011;26936;50.524;8.684;2022-12-18T09:15:45;28.25;;;13.80;;
41201;SDS011;26936;50.524;8.684;2022-12-18T09:18:12;27.92;;;13.93;;
41201;SDS011;26936;50.524;8.684;2022-12-18T09:20:39;29.58;;;14.00;;
41201;SDS011;26936;50.524;8.684;2022-12-18T09:23:05;29.42;;;12.82;;
41201;SDS011;26936;50.524;8.684;2022-12-18T09:25:32;29.95;;;13.93;;
41201;SDS011;26936;50.524;8.684;2022-12-18T09:27:58;28.73;;;14.23;;
41201;SDS011;26936;50.524;8.684;2022-12-18T09:30:24;27.02;;;13.77;;
41201;SDS011;26936;50.524;8.684;2022-12-18T09:32:50;27.50;;;13.63;;
41201;SDS011;26936;50.524;8.684;2022-12-18T09:35:15;30.42;;;14.57;;
41201;SDS011;26936;50.524;8.684;2022-12-18T09:37:40;31.57;;;13.97;;
41201;SDS011;26936;50.524;8.684;2022-12-18T09:40:09;26.95;;;14.52;;
41201;SDS011;26936;50.524;8.684;2022-12-18T09:42:45;28.55;;;13.38;;
41201;SDS011;26936;50.524;8.684;2022-12-18T09:45:19;28.58;;;13.90;;
41201;SDS011;26936;50.524;8.684;2022-12-18T09:47:45;27.85;;;14.02;;
41201;SDS011;26936;50.524;8.684;2022-12-18T09:50:22;28.02;;;14.05;;
41201;SDS011;26936;50.524;8.684;2022-12-18T09:52:53;24.92;;;13.52;;
41201;SDS011;26936;50.524;8.684;2022-12-18T09:55:28;28.45;;;13.75;;
41201;SDS011;26936;50.524;8.684;2022-12-18T09:58:02;29.58;;;13.90;;
41201;SDS011;26936;50.524;8.684;2022-12-18T10:00:36;29.55;;;14.95;;
41201;SDS011;26936;50.524;8.684;2022-12-18T10:03:08;30.35;;;15.70;;
41201;SDS011;26936;50.524;8.684;2022-12-18T10:10:51;29.15;;;14.48;;
41201;SDS011;26936;50.524;8.684;2022-12-18T10:13:21;27.45;;;14.80;;
41201;SDS011;26936;50.524;8.684;2022-12-18T10:16:09;26.98;;;14.15;;
41201;SDS011;26936;50.524;8.684;2022-12-18T10:18:59;26.55;;;13.65;;
41201;SDS011;26936;50.524;8.684;2022-12-18T10:24:27;23.98;;;11.85;;
41201;SDS011;26936;50.524;8.684;2022-12-18T10:27:11;22.52;;;10.68;;
41201;SDS011;26936;50.524;8.684;2022-12-18T10:29:41;23.52;;;11.90;;
41201;SDS011;26936;50.524;8.684;2022-12-18T10:32:08;22.13;;;11.45;;
41201;SDS011;26936;50.524;8.684;2022-12-18T10:34:40;24.07;;;11.40;;
41201;SDS011;26936;50.524;8.684;2022-12-18T10:37:06;20.50;;;10.37;;
41201;SDS011;26936;50.524;8.684;2022-12-18T10:39:40;23.42;;;11.07;;
41201;SDS011;26936;50.524;8.684;2022-12-18T10:42:23;21.08;;;10.65;;
41201;SDS011;26936;50.524;8.684;2022-12-18T10:44:52;25.20;;;12.25;;
41201;SDS011;26936;50.524;8.684;2022-12-18T10:47:28;25.05;;;11.55;;
41201;SDS011;26936;50.524;8.684;2022-12-18T10:49:53;22.55;;;11.23;;
41201;SDS011;26936;50.524;8.684;2022-12-18T10:52:21;21.45;;;11.15;;
41201;SDS011;26936;50.524;8.684;2022-12-18T10:59:52;24.48;;;11.65;;
41201;SDS011;26936;50.524;8.684;2022-12-18T11:02:40;24.00;;;12.45;;
41201;SDS011;26936;50.524;8.684;2022-12-18T11:05:27;27.65;;;12.55;;
41201;SDS011;26936;50.524;8.684;2022-12-18T11:07:58;24.05;;;12.05;;
41201;SDS011;26936;50.524;8.684;2022-12-18T11:10:28;26.88;;;12.50;;
41201;SDS011;26936;50.524;8.684;2022-12-18T11:13:08;27.00;;;12.45;;
41201;SDS011;26936;50.524;8.684;2022-12-18T11:15:35;26.88;;;12.98;;
41201;SDS011;26936;50.524;8.684;2022-12-18T11:18:01;29.80;;;13.95;;
41201;SDS011;26936;50.524;8.684;2022-12-18T11:25:26;28.98;;;13.65;;
41201;SDS011;26936;50.524;8.684;2022-12-18T11:27:56;30.70;;;14.93;;
41201;SDS011;26936;50.524;8.684;2022-12-18T11:33:10;32.22;;;16.92;;
41201;SDS011;26936;50.524;8.684;2022-12-18T11:35:49;33.85;;;14.57;;
41201;SDS011;26936;50.524;8.684;2022-12-18T11:38:23;29.92;;;15.18;;
41201;SDS011;26936;50.524;8.684;2022-12-18T11:40:56;32.25;;;15.32;;
41201;SDS011;26936;50.524;8.684;2022-12-18T11:46:17;35.75;;;15.98;;
41201;SDS011;26936;50.524;8.684;2022-12-18T11:48:55;34.53;;;15.50;;
41201;SDS011;26936;50.524;8.684;2022-12-18T11:51:29;33.90;;;16.75;;
41201;SDS011;26936;50.524;8.684;2022-12-18T11:54:00;32.25;;;16.08;;
41201;SDS011;26936;50.524;8.684;2022-12-18T11:56:30;33.33;;;16.33;;
41201;SDS011;26936;50.524;8.684;2022-12-18T11:59:19;37.00;;;16.52;;
41201;SDS011;26936;50.524;8.684;2022-12-18T12:01:57;37.40;;;16.98;;
41201;SDS011;26936;50.524;8.684;2022-12-18T12:04:40;32.55;;;15.90;;
41201;SDS011;26936;50.524;8.684;2022-12-18T12:21:54;37.08;;;17.20;;
41201;SDS011;26936;50.524;8.684;2022-12-18T12:24:26;40.05;;;17.55;;
41201;SDS011;26936;50.524;8.684;2022-12-18T12:27:20;38.28;;;18.20;;
41201;SDS011;26936;50.524;8.684;2022-12-18T12:38:08;48.67;;;20.15;;
41201;SDS011;26936;50.524;8.684;2022-12-18T12:40:40;43.55;;;18.60;;
41201;SDS011;26936;50.524;8.684;2022-12-18T12:45:59;45.72;;;18.63;;
41201;SDS011;26936;50.524;8.684;2022-12-18T12:48:36;50.28;;;21.02;;
41201;SDS011;26936;50.524;8.684;2022-12-18T12:51:11;46.30;;;19.27;;
41201;SDS011;26936;50.524;8.684;2022-12-18T12:53:37;45.80;;;18.65;;
41201;SDS011;26936;50.524;8.684;2022-12-18T12:56:04;47.47;;;19.83;;
41201;SDS011;26936;50.524;8.684;2022-12-18T13:01:28;44.47;;;18.30;;
41201;SDS011;26936;50.524;8.684;2022-12-18T13:04:06;44.75;;;19.25;;
41201;SDS011;26936;50.524;8.684;2022-12-18T13:06:59;48.47;;;20.73;;
41201;SDS011;26936;50.524;8.684;2022-12-18T13:09:29;48.55;;;19.98;;
41201;SDS011;26936;50.524;8.684;2022-12-18T13:12:02;51.85;;;20.60;;
41201;SDS011;26936;50.524;8.684;2022-12-18T13:14:48;48.10;;;18.25;;
41201;SDS011;26936;50.524;8.684;2022-12-18T13:19:47;52.40;;;20.63;;
41201;SDS011;26936;50.524;8.684;2022-12-18T13:22:24;50.28;;;19.77;;
41201;SDS011;26936;50.524;8.684;2022-12-18T13:24:56;43.55;;;18.23;;
41201;SDS011;26936;50.524;8.684;2022-12-18T13:32:59;46.88;;;19.95;;
41201;SDS011;26936;50.524;8.684;2022-12-18T13:35:38;52.40;;;20.35;;
41201;SDS011;26936;50.524;8.684;2022-12-18T13:48:49;47.38;;;19.23;;
41201;SDS011;26936;50.524;8.684;2022-12-18T13:51:17;48.70;;;20.08;;
41201;SDS011;26936;50.524;8.684;2022-12-18T13:56:45;50.20;;;18.52;;
41201;SDS011;26936;50.524;8.684;2022-12-18T13:59:16;52.22;;;20.10;;
41201;SDS011;26936;50.524;8.684;2022-12-18T14:01:48;50.88;;;20.38;;
41201;SDS011;26936;50.524;8.684;2022-12-18T14:04:28;53.95;;;21.67;;
41201;SDS011;26936;50.524;8.684;2022-12-18T14:06:55;53.08;;;21.05;;
41201;SDS011;26936;50.524;8.684;2022-12-18T14:09:31;44.75;;;19.63;;
41201;SDS011;26936;50.524;8.684;2022-12-18T14:12:00;56.80;;;21.20;;
41201;SDS011;26936;50.524;8.684;2022-12-18T14:14:46;49.20;;;19.38;;
41201;SDS011;26936;50.524;8.684;2022-12-18T14:17:13;57.67;;;21.80;;
41201;SDS011;26936;50.524;8.684;2022-12-18T14:19:49;54.05;;;21.17;;
41201;SDS011;26936;50.524;8.684;2022-12-18T14:22:17;51.63;;;21.52;;
41201;SDS011;26936;50.524;8.684;2022-12-18T14:25:05;55.13;;;21.52;;
41201;SDS011;26936;50.524;8.684;2022-12-18T14:27:48;55.72;;;21.83;;
41201;SDS011;26936;50.524;8.684;2022-12-18T14:35:27;57.90;;;22.73;;
41201;SDS011;26936;50.524;8.684;2022-12-18T14:37:59;54.78;;;20.85;;
41201;SDS011;26936;50.524;8.684;2022-12-18T14:40:34;53.08;;;20.42;;
41201;SDS011;26936;50.524;8.684;2022-12-18T14:43:00;57.15;;;21.58;;
41201;SDS011;26936;50.524;8.684;2022-12-18T14:45:32;51.67;;;20.50;;
41201;SDS011;26936;50.524;8.684;2022-12-18T14:47:59;50.85;;;19.83;;
41201;SDS011;26936;50.524;8.684;2022-12-18T14:50:25;51.28;;;21.13;;
41201;SDS011;26936;50.524;8.684;2022-12-18T14:52:51;55.72;;;21.92;;
41201;SDS011;26936;50.524;8.684;2022-12-18T14:55:17;55.08;;;22.17;;
41201;SDS011;26936;50.524;8.684;2022-12-18T14:57:44;57.10;;;21.15;;
41201;SDS011;26936;50.524;8.684;2022-12-18T15:00:17;53.58;;;20.90;;
41201;SDS011;26936;50.524;8.684;2022-12-18T15:02:51;53.80;;;21.98;;
41201;SDS011;26936;50.524;8.684;2022-12-18T15:05:20;51.50;;;19.23;;
41201;SDS011;26936;50.524;8.684;2022-12-18T15:07:54;53.22;;;20.75;;
41201;SDS011;26936;50.524;8.684;2022-12-18T15:12:49;53.90;;;21.45;;
41201;SDS011;26936;50.524;8.684;2022-12-18T15:17:58;55.95;;;19.60;;
41201;SDS011;26936;50.524;8.684;2022-12-18T15:20:24;50.85;;;21.05;;
41201;SDS011;26936;50.524;8.684;2022-12-18T15:22:50;55.38;;;19.60;;
41201;SDS011;26936;50.524;8.684;2022-12-18T15:28:19;48.28;;;19.17;;
41201;SDS011;26936;50.524;8.684;2022-12-18T15:31:18;50.83;;;19.77;;
41201;SDS011;26936;50.524;8.684;2022-12-18T15:33:43;48.58;;;19.02;;
41201;SDS011;26936;50.524;8.684;2022-12-18T15:36:13;48.58;;;18.90;;
41201;SDS011;26936;50.524;8.684;2022-12-18T15:38:40;48.85;;;17.70;;
41201;SDS011;26936;50.524;8.684;2022-12-18T15:41:17;51.78;;;18.45;;
41201;SDS011;26936;50.524;8.684;2022-12-18T15:43:45;48.85;;;18.63;;
41201;SDS011;26936;50.524;8.684;2022-12-18T15:46:13;49.63;;;17.77;;
41201;SDS011;26936;50.524;8.684;2022-12-18T15:48:41;47.00;;;19.10;;
41201;SDS011;26936;50.524;8.684;2022-12-18T15:51:11;46.38;;;17.90;;
41201;SDS011;26936;50.524;8.684;2022-12-18T15:53:41;47.25;;;18.10;;
41201;SDS011;26936;50.524;8.684;2022-12-18T15:56:10;43.42;;;16.98;;
41201;SDS011;26936;50.524;8.684;2022-12-18T15:58:55;45.25;;;17.77;;
41201;SDS011;26936;50.524;8.684;2022-12-18T16:01:22;42.90;;;18.23;;
41201;SDS011;26936;50.524;8.684;2022-12-18T16:03:49;46.38;;;17.63;;
41201;SDS011;26936;50.524;8.684;2022-12-18T16:06:14;48.30;;;18.23;;
41201;SDS011;26936;50.524;8.684;2022-12-18T16:08:39;47.72;;;18.17;;
41201;SDS011;26936;50.524;8.684;2022-12-18T16:11:05;53.97;;;18.67;;
41201;SDS011;26936;50.524;8.684;2022-12-18T16:13:30;45.85;;;16.15;;
41201;SDS011;26936;50.524;8.684;2022-12-18T16:15:56;41.58;;;16.20;;